Latest Coastal Weather Observations for Wilsons Promontory

IDV60701

Issued at 7:03 am EST Monday 25 September 2017 (issued every 10 minutes, with the page automatically refreshed every 10 minutes)

About coastal observations | Map of coastal stations | Coastal observations for VIC | Marine services | Other Formats
Station Details ID: 085096 Name: WILSONS PROMONTORY LIGHTHOUSE Lat: -39.13 Lon: 146.42 Height: 95.0 m
Data from the previous 72 hours. | See also: Recent months at Wilsons Promontory
Date/Time
EST
Temp
°C
Wind Pressure Rain since
9am
mm
Weather Cloud Vis
km
Sea
Height
m
Swell
Dir  Spd
kts
Gust
kts
hPa Trend Height
m
Period
s
Dir
25/07:00am 10.7 W 33 42 1001.2 - 18.6 - - - - - - -
25/06:30am 10.7 W 26 37 1001.2 - 18.6 - - - - - - -
25/06:00am 10.5 W 28 40 1000.7 - 18.6 - - - - - - -
25/05:30am 10.3 W 30 46 999.5 - 18.6 - - - - - - -
25/05:03am 10.8 W 29 40 999.8 - 18.6 - - - - - - -
25/05:00am 10.8 W 27 36 999.8 - 18.6 - - - - - - -
25/04:34am 10.8 W 31 41 999.7 - 18.6 - - - - - - -
25/04:30am 10.8 W 32 41 999.6 - 18.6 - - - - - - -
25/04:02am 11.0 W 27 37 999.5 - 18.6 - - - - - - -
25/04:00am 11.0 W 29 37 999.4 - 18.6 - - - - - - -
25/03:46am 10.9 W 24 34 999.3 - 18.6 - - - - - - -
25/03:30am 11.2 W 27 35 999.0 - 18.6 - - - - - - -
25/03:05am 11.2 W 25 35 998.8 - 18.6 - - - - - - -
25/03:00am 11.0 W 24 32 998.9 - 18.6 - - - - - - -
25/02:30am 11.4 W 25 37 998.7 - 17.6 - - - - - - -
25/02:00am 11.4 W 30 40 998.1 - 17.4 - - - - - - -
25/01:30am 11.7 W 33 44 997.8 - 14.2 - - - - - - -
25/01:00am 11.6 W 32 45 997.7 - 11.8 - - - - - - -
25/12:30am 11.7 W 33 47 997.8 - 10.4 - - - - - - -
25/12:00am 11.9 W 33 54 997.2 - 8.4 - - - - - - -
 
Date/Time
EST
Temp
°C
Wind Pressure Rain since
9am
mm
Weather Cloud Vis
km
Sea
Height
m
Swell
Dir  Spd
kts
Gust
kts
hPa Trend Height
m
Period
s
Dir
24/11:30pm 11.8 W 32 51 997.0 - 8.4 - - - - - - -
24/11:00pm 12.5 W 25 46 996.9 - 6.6 - - - - - - -
24/10:30pm 13.2 W 28 53 996.2 - 6.4 - - - - - - -
24/10:16pm 13.3 WNW 31 57 996.0 - 6.4 - - - - - - -
24/10:00pm 13.3 W 25 43 996.1 - 6.4 - - - - - - -
24/09:30pm 13.6 W 24 51 996.2 - 6.4 - - - - - - -
24/09:16pm 13.5 W 17 56 996.4 - 6.4 - - - - - - -
24/09:14pm 13.6 WNW 33 56 995.5 - 6.4 - - - - - - -
24/09:12pm 13.6 W 18 39 996.2 - 6.4 - - - - - - -
24/09:04pm 13.4 W 15 26 995.9 - 6.4 - - - - - - -
24/09:00pm 13.3 NNW 9 21 996.3 - 6.4 - - - - - - -
24/08:30pm 13.2 W 13 27 996.3 - 6.4 - - - - - - -
24/08:00pm 12.7 NE 6 12 996.1 - 6.4 - - - - - - -
24/07:30pm 12.2 NNW 6 15 996.0 - 6.4 - - - - - - -
24/07:00pm 11.9 S 6 13 996.1 - 6.2 - - - - - - -
24/06:30pm 11.6 W 18 46 995.7 - 5.8 - - - - - - -
24/06:17pm 11.8 W 18 34 995.9 - 4.8 - - - - - - -
24/06:00pm 12.0 N 6 16 996.0 - 3.8 - - - - - - -
24/05:30pm 11.8 WSW 10 18 995.8 - 3.4 - - - - - - -
24/05:00pm 11.6 W 13 23 995.5 - 3.4 - - - - - - -
24/04:42pm 12.1 W 15 31 995.8 - 2.6 - - - - - - -
24/04:30pm 13.2 W 10 21 995.4 - 1.6 - - - - - - -
24/04:00pm 14.2 W 8 15 994.9 - 1.2 - - - - - - -
24/03:30pm 15.1 W 18 35 994.5 - 1.2 - - - - - - -
24/03:29pm 15.1 W 18 35 994.3 - 1.2 - - - - - - -
24/03:07pm 15.0 WNW 15 25 994.5 - 1.2 - - - - - - -
24/03:00pm 15.1 W 10 22 994.7 - 1.2 - - - - - - -
24/02:30pm 15.7 W 16 29 994.9 - 1.2 - - - - - - -
24/02:00pm 15.2 W 26 46 994.8 - 1.2 - - - - - - -
24/01:30pm 15.2 W 25 47 994.6 - 1.2 - - - - - - -
24/01:00pm 14.8 W 27 43 994.8 - 1.2 - - - - - - -
24/12:30pm 14.3 WNW 23 45 995.6 - 1.2 - - - - - - -
24/12:00pm 14.0 W 23 38 995.7 - 1.2 - - - - - - -
24/11:30am 13.3 W 25 53 995.5 - 1.2 - - - - - - -
24/11:25am 13.2 W 21 53 995.4 - 1.2 - - - - - - -
24/11:00am 12.6 WNW 21 38 995.8 - 1.2 - - - - - - -
24/10:30am 12.2 W 19 41 996.0 - 1.2 - - - - - - -
24/10:00am 11.4 W 26 41 995.5 - 1.2 - - - - - - -
24/09:30am 10.6 W 22 41 995.5 - 1.2 - - - - - - -
24/09:00am 9.9 W 25 39 995.9 - 6.0 - - - - - - -
24/08:52am 10.2 W 24 39 995.9 - 5.6 - - - - - - -
24/08:51am 10.4 W 23 31 995.9 - 5.6 - - - - - - -
24/08:30am 11.6 N 10 26 995.6 - 1.2 - - - - - - -
24/08:19am 12.3 NNW 15 32 995.0 - 0.4 - - - - - - -
24/08:00am 13.4 WSW 7 23 994.9 - 0.0 - - - - - - -
24/07:30am 13.2 W 20 33 994.3 - 0.0 - - - - - - -
24/07:00am 12.8 WNW 18 37 994.5 - 0.0 - - - - - - -
24/06:30am 12.4 WNW 20 37 994.6 - 0.0 - - - - - - -
24/06:00am 12.4 W 16 35 995.0 - 0.0 - - - - - - -
24/05:30am 12.6 W 25 41 994.9 - 0.0 - - - - - - -
24/05:00am 12.7 WNW 23 40 995.1 - 0.0 - - - - - - -
24/04:30am 12.9 W 26 41 994.9 - 0.0 - - - - - - -
24/04:00am 13.0 WNW 26 40 995.0 - 0.0 - - - - - - -
24/03:30am 13.2 WNW 26 44 995.0 - 0.0 - - - - - - -
24/03:00am 13.2 W 23 42 995.1 - 0.0 - - - - - - -
24/02:30am 13.3 W 23 39 995.1 - 0.0 - - - - - - -
24/02:00am 13.4 W 23 38 995.2 - 0.0 - - - - - - -
24/01:30am 13.7 W 29 43 995.0 - 0.0 - - - - - - -
24/01:00am 13.7 W 24 37 995.2 - 0.0 - - - - - - -
24/12:30am 13.9 W 28 40 995.2 - 0.0 - - - - - - -
24/12:00am 13.9 W 27 41 995.2 - 0.0 - - - - - - -
 
Date/Time
EST
Temp
°C
Wind Pressure Rain since
9am
mm
Weather Cloud Vis
km
Sea
Height
m
Swell
Dir  Spd
kts
Gust
kts
hPa Trend Height
m
Period
s
Dir
23/11:30pm 14.0 W 27 41 995.1 - 0.0 - - - - - - -
23/11:00pm 14.0 W 27 41 995.3 - 0.0 - - - - - - -
23/10:30pm 14.0 W 26 39 995.4 - 0.0 - - - - - - -
23/10:00pm 13.9 W 33 45 994.8 - 0.0 - - - - - - -
23/09:30pm 13.9 W 32 45 995.0 - 0.0 - - - - - - -
23/09:00pm 13.8 W 31 47 994.8 - 0.0 - - - - - - -
23/08:51pm 13.9 W 30 47 994.8 - 0.0 - - - - - - -
23/08:30pm 14.0 W 25 36 995.5 - 0.0 - - - - - - -
23/08:03pm 13.9 W 21 31 995.2 - 0.0 - - - - - - -
23/08:00pm 13.9 W 21 29 995.2 - 0.0 - - - - - - -
23/07:44pm 14.1 W 25 35 995.0 - 0.0 - - - - - - -
23/07:30pm 14.1 W 29 37 994.4 - 0.0 - - - - - - -
23/07:24pm 14.1 W 26 37 994.2 - 0.0 - - - - - - -
23/07:02pm 14.4 W 37 47 994.1 - 0.0 - - - - - - -
23/07:00pm 14.4 W 38 47 993.5 - 0.0 - - - - - - -
23/06:31pm 14.4 W 39 50 991.8 - 0.0 - - - - - - -
23/06:30pm 14.3 W 38 47 991.9 - 0.0 - - - - - - -
23/06:18pm 14.2 WSW 41 63 990.7 - 0.0 - - - - - - -
23/06:17pm 14.1 WSW 42 63 990.5 - 0.0 - - - - - - -
23/06:15pm 14.3 WSW 53 63 990.2 - 0.0 - - - - - - -
23/06:14pm 14.4 WSW 56 63 989.9 - 0.0 - - - - - - -
23/06:10pm 15.4 W 37 55 990.7 - 0.0 - - - - - - -
23/06:00pm 15.6 W 35 45 991.2 - 0.0 - - - - - - -
23/05:55pm 16.1 W 39 45 990.5 - 0.0 - - - - - - -
23/05:50pm 19.0 W 26 38 990.3 - 0.0 - - - - - - -
23/05:30pm 18.8 W 25 32 989.7 - 0.0 - - - - - - -
23/05:23pm 18.2 W 15 26 989.0 - 0.0 - - - - - - -
23/05:00pm 20.5 N 5 9 988.6 - 0.0 - - - - - - -
23/04:30pm 17.9 NE 6 9 988.4 - 0.0 - - - - - - -
23/04:00pm 17.7 NNE 13 16 988.6 - 0.0 - - - - - - -
23/03:30pm 17.1 NE 13 15 988.9 - 0.0 - - - - - - -
23/03:00pm 17.2 NE 12 15 989.2 - 0.0 - - - - - - -
23/02:30pm 17.2 NE 11 15 989.5 - 0.0 - - - - - - -
23/02:00pm 17.2 NE 8 12 990.4 - 0.0 - - - - - - -
23/01:30pm 17.2 ENE 5 8 991.2 - 0.0 - - - - - - -
23/01:00pm 17.4 SE 4 6 992.2 - 0.0 - - - - - - -
23/12:30pm 17.6 SW 5 9 993.3 - 0.0 - - - - - - -
23/12:00pm 17.3 SW 11 14 994.4 - 0.0 - - - - - - -
23/11:30am 18.0 SW 5 8 994.4 - 0.0 - - - - - - -
23/11:00am 18.6 SSW 5 7 995.2 - 0.0 - - - - - - -
23/10:30am 17.9 SSW 5 8 996.2 - 0.0 - - - - - - -
23/10:00am 16.8 SE 6 19 997.3 - 0.0 - - - - - - -
23/09:53am 16.9 SW 16 23 997.2 - 0.0 - - - - - - -
23/09:30am 18.1 W 23 28 997.0 - 0.0 - - - - - - -
23/09:15am 19.2 WSW 21 32 997.1 - 0.0 - - - - - - -
23/09:12am 21.0 WNW 17 30 997.1 - 0.0 - - - - - - -
23/09:00am 19.6 W 21 34 997.9 - 0.0 - - - - - - -
23/08:51am 22.0 W 22 34 998.0 - 0.0 - - - - - - -
23/08:48am 23.0 NNW 16 20 997.2 - 0.0 - - - - - - -
23/08:30am 16.6 N 15 18 996.9 - 0.0 - - - - - - -
23/08:19am 20.1 N 12 16 997.4 - 0.0 - - - - - - -
23/08:00am 25.4 NNW 13 20 997.5 - 0.0 - - - - - - -
23/07:30am 24.7 NNW 17 28 998.4 - 0.0 - - - - - - -
23/07:24am 23.8 N 15 28 997.9 - 0.0 - - - - - - -
23/07:16am 22.1 N 14 18 998.1 - 0.0 - - - - - - -
23/07:00am 16.8 N 12 15 997.9 - 0.0 - - - - - - -
23/06:30am 18.1 N 16 21 997.5 - 0.0 - - - - - - -
23/06:00am 16.0 N 17 19 997.6 - 0.0 - - - - - - -
23/05:30am 16.6 N 14 18 998.3 - 0.0 - - - - - - -
23/05:25am 16.4 N 14 18 998.4 - 0.0 - - - - - - -
23/05:00am 21.5 N 15 22 998.8 - 0.0 - - - - - - -
23/04:30am 23.1 N 12 18 999.1 - 0.0 - - - - - - -
23/04:00am 24.5 NNW 15 23 999.5 - 0.0 - - - - - - -
23/03:42am 24.4 NNW 15 27 999.7 - 0.0 - - - - - - -
23/03:30am 24.1 NNW 14 22 999.8 - 0.0 - - - - - - -
23/03:09am 24.1 NNW 14 19 1000.3 - 0.0 - - - - - - -
23/03:00am 19.0 N 14 18 1000.2 - 0.0 - - - - - - -
23/02:56am 18.3 N 12 19 1000.0 - 0.0 - - - - - - -
23/02:30am 23.9 NNW 16 23 1000.8 - 0.0 - - - - - - -
23/02:11am 22.5 NNW 14 22 1001.3 - 0.0 - - - - - - -
23/02:00am 17.4 NNW 12 18 1001.6 - 0.0 - - - - - - -
23/01:30am 13.0 N 14 17 1002.2 - 0.0 - - - - - - -
23/01:00am 13.2 NNE 15 17 1002.8 - 0.0 - - - - - - -
23/12:30am 12.6 NNE 20 23 1003.1 - 0.0 - - - - - - -
23/12:00am 12.7 NNE 20 23 1003.4 - 0.0 - - - - - - -
 
Date/Time
EST
Temp
°C
Wind Pressure Rain since
9am
mm
Weather Cloud Vis
km
Sea
Height
m
Swell
Dir  Spd
kts
Gust
kts
hPa Trend Height
m
Period
s
Dir
22/11:30pm 12.9 NNE 20 25 1003.6 - 0.0 - - - - - - -
22/11:00pm 13.0 NNE 20 25 1003.9 - 0.0 - - - - - - -
22/10:30pm 13.1 NNE 19 26 1004.5 - 0.0 - - - - - - -
22/10:00pm 13.4 NNE 20 26 1004.9 - 0.0 - - - - - - -
22/09:30pm 13.0 NNE 21 26 1005.3 - 0.0 - - - - - - -
22/09:00pm 12.7 NNE 20 25 1005.6 - 0.0 - - - - - - -
22/08:30pm 12.6 NNE 21 28 1005.8 - 0.0 - - - - - - -
22/08:00pm 12.4 NNE 19 24 1006.1 - 0.0 - - - - - - -
22/07:30pm 12.3 NNE 18 27 1006.5 - 0.0 - - - - - - -
22/07:26pm 12.3 NNE 17 27 1006.4 - 0.0 - - - - - - -
22/07:00pm 12.2 NNE 18 21 1006.5 - 0.0 - - - - - - -
22/06:30pm 12.1 NNE 18 22 1006.4 - 0.0 - - - - - - -
22/06:00pm 12.1 NNE 19 25 1006.0 - 0.0 - - - - - - -
22/05:30pm 12.1 NNE 14 19 1006.4 - 0.0 - - - - - - -
22/05:00pm 12.4 NNE 15 19 1006.6 - 0.0 - - - - - - -
22/04:30pm 12.3 NNE 17 20 1006.6 - 0.0 - - - - - - -
22/04:00pm 12.8 NNE 16 19 1006.8 - 0.0 - - - - - - -
22/03:30pm 12.7 NNE 16 19 1006.9 - 0.0 - - - - - - -
22/03:00pm 13.0 NNE 17 20 1006.9 - 0.0 - - - - - - -
22/02:30pm 12.8 NNE 17 21 1006.9 - 0.0 - - - - - - -
22/02:00pm 13.2 NNE 16 19 1007.3 - 0.0 - - - - - - -
22/01:30pm 13.2 NNE 15 18 1007.8 - 0.0 - - - - - - -
22/01:00pm 13.1 NNE 15 18 1008.0 - 0.0 - - - - - - -
22/12:30pm 13.1 NNE 13 16 1008.3 - 0.0 - - - - - - -
22/12:00pm 13.6 NNE 11 13 1009.1 - 0.0 - - - - - - -
22/11:30am 13.5 NE 10 14 1009.4 - 0.0 - - - - - - -
22/11:00am 14.3 NE 10 13 1009.6 - 0.0 - - - - - - -
22/10:30am 13.8 NE 10 13 1009.4 - 0.0 - - - - - - -
22/10:00am 13.9 NE 9 11 1009.8 - 0.0 - - - - - - -
22/09:30am 13.9 NE 7 9 1010.0 - 0.0 - - - - - - -
22/09:00am 13.5 ENE 6 8 1010.3 - 0.0 - - - - - - -
22/08:30am 13.8 NE 7 8 1010.3 - 0.0 - - - - - - -
22/08:00am 13.2 NE 5 6 1010.4 - 0.0 - - - - - - -
22/07:30am 12.7 ENE 4 5 1010.3 - 0.0 - - - - - - -

Other Formats:

Comma delimited format used in spreadsheet applications
http://www.bom.gov.au/fwo/IDV60701/IDV60701.94893.axf

JavaScript Object Notation format (JSON) in row-major order
http://www.bom.gov.au/fwo/IDV60701/IDV60701.94893.json